National Weather Service United States Department of Commerce

Airport Observations and Forecasts (from NWS CLE)

Cleveland Hopkins International Airport

 

FAA details


712
FTUS41 KCLE 290525
TAFCLE
TAF
KCLE 290525Z 2906/3012 19014KT P6SM SCT110 BKN200
FM291400 21014G22KT P6SM VCSH SCT045 BKN150
FM300100 21012KT P6SM VCTS SCT045 BKN100CB=

24 hours of observations

7-day forecast

Hourly - Tabular forecast  Hourly - Graph forecast

Terminal Information Board

Toledo Express Airport

 

FAA details


713
FTUS41 KCLE 290525
TAFTOL
TAF
KTOL 290525Z 2906/3006 20011KT P6SM VCSH BKN110
FM291400 22014G24KT P6SM VCSH SCT045 BKN110
FM300000 22010KT P6SM -SHRA VCTS SCT040 BKN090CB=

24 hours of observations

7-day forecast

Hourly - Tabular forecast  Hourly - Graph forecast

Terminal Information Board

Findlay Airport

 

FAA details


709
FTUS41 KCLE 290525
TAFFDY
TAF
KFDY 290525Z 2906/3006 19011KT P6SM SCT110 BKN200
FM291400 22016G26KT P6SM VCSH SCT045 BKN110
FM300100 22011KT P6SM -SHRA VCTS SCT040 BKN100CB=

24 hours of observations

7-day forecast

Hourly - Tabular forecast   Hourly - Graph forecast

Terminal Information Board

Mansfield Lahm Airport

 

FAA details


710
FTUS41 KCLE 290525
TAFMFD
TAF
KMFD 290525Z 2906/3006 19011KT P6SM FEW120 BKN250
FM291400 22015G25KT P6SM SCT045 BKN200
FM300000 21012KT P6SM SCT045 BKN110=

24 hours of observations

7-day forecast

Hourly - Tabular forecast   Hourly - Graph forecast

Terminal Information Board

Akron-Canton Airport

 

FAA details


708
FTUS41 KCLE 290525
TAFCAK
TAF
KCAK 290525Z 2906/3006 19010KT P6SM SCT120 BKN250
FM291400 21014G24KT P6SM SCT045 BKN200
FM300100 21007KT P6SM VCSH SCT045 BKN110=

24 hours of observations

7-day forecast

Hourly - Tabular forecast   Hourly - Graph forecast

Terminal Information Board

Youngstown-Warren Regional Airport

 

FAA details


707
FTUS41 KCLE 290525
TAFYNG
TAF
KYNG 290525Z 2906/3006 18009KT P6SM BKN120
FM291400 21014G24KT P6SM SCT045 BKN200
FM300100 21007KT P6SM VCTS SCT045 BKN110CB=

24 hours of observations

7-day forecast

Hourly - Tabular forecast   Hourly - Graph forecast

Terminal Information Board

Erie International Airport

 

FAA details


711
FTUS41 KCLE 290525
TAFERI
TAF
KERI 290525Z 2906/3006 18014KT P6SM VCSH OVC110
FM291100 19015G25KT P6SM VCSH BKN110
FM291900 22014G22KT P6SM VCTS SCT050 BKN110CB
FM300200 20012KT P6SM -SHRA VCTS SCT050 BKN090CB=

24 hours of observations

7-day forecast

Hourly - Tabular Forecast  Hourly - Graph forecast

Terminal Information Board

The National Weather Service is Cleveland is responsible for the Terminal Areodome Forecasts for seven area airports in northern Ohio and northwest Pennsylvania.  Routine issuance times are by 00Z, 06Z, 12Z, and 18Z with amendments, as needed.

Latest Surface Analysis

Additional Current Conditions

Satellite

Radar
 
 

 

Center Weather Service Unit, Oberlin/ZOB

CWA/MIS    

 

The National Weather Service Center Weather Service Unit in Oberlin is responsible for the airspace above northern Ohio and northwest Pennsylvania and ajoining areas.

 

Aviaiton Weather Center National, AWC

AIRMETS & SIGMETS

 

 

Climatology